createdAt,value
2022-12-08T00:00:32.994Z,99815.94
2022-12-08T00:03:02.836Z,99799.00
2022-12-08T00:05:52.877Z,99804.22
2022-12-08T00:08:34.879Z,99810.16
2022-12-08T00:11:04.478Z,99801.94
2022-12-08T00:13:34.071Z,99792.16
2022-12-08T00:16:04.192Z,99794.34
2022-12-08T00:18:33.940Z,99795.56
2022-12-08T00:21:06.346Z,99803.28
2022-12-08T00:23:36.168Z,99797.06
2022-12-08T00:26:06.594Z,99784.31
2022-12-08T00:28:37.435Z,99791.47
2022-12-08T00:31:11.100Z,99791.03
2022-12-08T00:33:40.944Z,99776.94
2022-12-08T00:36:15.711Z,99780.56
2022-12-08T00:38:47.216Z,99782.94
2022-12-08T00:41:18.686Z,99773.28
2022-12-08T00:43:48.294Z,99782.84
2022-12-08T00:46:17.843Z,99762.03
2022-12-08T00:48:47.439Z,99775.09
2022-12-08T00:51:19.553Z,99756.72
2022-12-08T00:53:49.147Z,99781.44
2022-12-08T00:56:18.651Z,99777.81
2022-12-08T00:58:48.153Z,99777.81
2022-12-08T01:01:17.965Z,99773.16
2022-12-08T01:03:47.964Z,99766.25
2022-12-08T01:06:20.546Z,99771.13
2022-12-08T01:08:50.045Z,99758.28
2022-12-08T01:11:21.567Z,99756.91
2022-12-08T01:13:51.154Z,99757.38
2022-12-08T01:16:24.348Z,99764.06
2022-12-08T01:18:54.292Z,99762.84
2022-12-08T01:21:26.775Z,99763.59
2022-12-08T01:23:58.094Z,99758.50
2022-12-08T01:26:27.590Z,99763.50
2022-12-08T01:28:57.369Z,99767.38
2022-12-08T01:31:26.954Z,99755.41
2022-12-08T01:33:56.486Z,99768.84
2022-12-08T01:36:30.957Z,99764.06
2022-12-08T01:39:02.055Z,99755.66
2022-12-08T01:41:33.442Z,99745.97
2022-12-08T01:44:05.500Z,99743.69
2022-12-08T01:46:36.589Z,99743.38
2022-12-08T01:49:12.076Z,99746.44
2022-12-08T01:51:50.769Z,99748.13
2022-12-08T01:54:21.291Z,99750.06
2022-12-08T01:57:00.854Z,99751.66
2022-12-08T01:59:33.313Z,99749.38
2022-12-08T02:02:02.955Z,99747.09
2022-12-08T02:04:32.486Z,99743.22
2022-12-08T02:07:08.131Z,99739.78
2022-12-08T02:09:39.387Z,99736.81
2022-12-08T02:12:10.220Z,99741.63
2022-12-08T02:14:39.765Z,99738.47
2022-12-08T02:17:19.571Z,99735.38
2022-12-08T02:20:16.804Z,99724.00
2022-12-08T02:22:57.541Z,99708.09
2022-12-08T02:25:34.261Z,99722.16
2022-12-08T02:28:18.700Z,99713.91
2022-12-08T02:30:53.709Z,99713.09
2022-12-08T02:34:03.102Z,99720.06
2022-12-08T02:36:40.016Z,99712.31
2022-12-08T02:39:22.470Z,99710.19
2022-12-08T02:41:59.437Z,99689.50
2022-12-08T02:44:35.637Z,99704.50
2022-12-08T02:47:11.273Z,99703.38
2022-12-08T02:49:43.547Z,99703.59
2022-12-08T02:52:43.029Z,99707.69
2022-12-08T02:55:21.275Z,99696.13
2022-12-08T02:58:24.317Z,99698.94
2022-12-08T03:01:05.185Z,99703.28
2022-12-08T03:03:44.308Z,99707.50
2022-12-08T03:06:28.600Z,99704.41
2022-12-08T03:09:03.033Z,99694.00
2022-12-08T03:11:41.064Z,99686.00
2022-12-08T03:14:13.333Z,99687.13
2022-12-08T03:16:47.795Z,99678.53
2022-12-08T03:19:21.498Z,99696.91
2022-12-08T03:22:03.179Z,99678.53
2022-12-08T03:24:35.785Z,99685.13
2022-12-08T03:27:09.297Z,99675.91
2022-12-08T03:29:38.924Z,99675.44
2022-12-08T03:32:14.759Z,99671.47
2022-12-08T03:34:49.917Z,99669.22
2022-12-08T03:37:23.005Z,99665.31
2022-12-08T03:39:52.749Z,99659.06
2022-12-08T03:42:22.227Z,99659.53
2022-12-08T03:44:51.752Z,99646.69
2022-12-08T03:47:21.421Z,99643.97
2022-12-08T03:49:50.938Z,99663.25
2022-12-08T03:52:23.073Z,99661.69
2022-12-08T03:54:52.649Z,99651.56
2022-12-08T03:57:22.153Z,99640.53
2022-12-08T03:59:51.691Z,99649.16
2022-12-08T04:02:21.379Z,99641.41
2022-12-08T04:04:51.072Z,99644.28
2022-12-08T04:07:23.343Z,99647.56
2022-12-08T04:09:52.835Z,99639.28
2022-12-08T04:12:22.413Z,99634.19
2022-12-08T04:14:52.024Z,99627.59
2022-12-08T04:17:21.545Z,99622.03
2022-12-08T04:19:51.052Z,99635.31
2022-12-08T04:22:23.294Z,99625.44
2022-12-08T04:24:52.943Z,99628.97
2022-12-08T04:27:22.454Z,99615.78
2022-12-08T04:29:51.942Z,99623.06
2022-12-08T04:32:21.471Z,99622.84
2022-12-08T04:34:51.140Z,99622.13
2022-12-08T04:37:23.265Z,99619.16
2022-12-08T04:39:53.064Z,99618.69
2022-12-08T04:42:22.572Z,99620.19
2022-12-08T04:44:52.072Z,99624.16
2022-12-08T04:47:22.282Z,99613.16
2022-12-08T04:49:52.077Z,99613.47
2022-12-08T04:52:24.297Z,99612.09
2022-12-08T04:54:53.838Z,99606.47
2022-12-08T04:57:23.419Z,99619.97
2022-12-08T04:59:52.968Z,99612.09
2022-12-08T05:02:22.776Z,99610.50
2022-12-08T05:04:52.370Z,99601.53
2022-12-08T05:07:24.591Z,99606.31
2022-12-08T05:09:54.226Z,99598.69
2022-12-08T05:12:23.754Z,99594.50
2022-12-08T05:14:53.233Z,99591.22
2022-12-08T05:17:22.698Z,99591.22
2022-12-08T05:19:52.242Z,99587.78
2022-12-08T05:22:24.568Z,99584.28
2022-12-08T05:24:54.207Z,99587.47
2022-12-08T05:27:23.804Z,99589.72
2022-12-08T05:29:53.262Z,99584.28
2022-12-08T05:32:22.846Z,99579.06
2022-12-08T05:34:52.438Z,99581.91
2022-12-08T05:37:24.593Z,99579.38
2022-12-08T05:39:54.147Z,99581.22
2022-12-08T05:42:25.060Z,99581.91
2022-12-08T05:44:55.222Z,99567.34
2022-12-08T05:47:24.806Z,99571.34
2022-12-08T05:49:54.426Z,99572.38
2022-12-08T05:52:28.291Z,99575.00
2022-12-08T05:54:58.082Z,99586.44
2022-12-08T05:57:27.575Z,99581.34
2022-12-08T05:59:59.522Z,99581.44
2022-12-08T06:02:29.532Z,99576.53
2022-12-08T06:04:59.155Z,99567.22
2022-12-08T06:07:31.294Z,99557.59
2022-12-08T06:10:00.990Z,99563.59
2022-12-08T06:12:30.683Z,99567.31
2022-12-08T06:15:00.227Z,99558.00
2022-12-08T06:17:29.755Z,99561.53
2022-12-08T06:19:59.224Z,99548.81
2022-12-08T06:22:31.495Z,99552.88
2022-12-08T06:25:01.919Z,99555.38
2022-12-08T06:27:33.640Z,99552.06
2022-12-08T06:30:03.567Z,99556.34
2022-12-08T06:32:33.477Z,99557.75
2022-12-08T06:35:03.079Z,99555.22
2022-12-08T06:37:35.251Z,99568.50
2022-12-08T06:40:05.139Z,99563.16
2022-12-08T06:42:47.227Z,99564.72
2022-12-08T06:45:18.785Z,99560.63
2022-12-08T06:47:48.371Z,99564.81
2022-12-08T06:50:17.985Z,99557.88
2022-12-08T06:53:01.016Z,99560.78
2022-12-08T06:55:57.716Z,99558.78
2022-12-08T06:58:24.264Z,99561.25
2022-12-08T07:00:53.881Z,99557.59
2022-12-08T07:03:23.687Z,99566.97
2022-12-08T07:05:53.281Z,99569.94
2022-12-08T07:08:26.010Z,99574.09
2022-12-08T07:10:55.571Z,99559.41
2022-12-08T07:13:25.150Z,99568.72
2022-12-08T07:15:54.917Z,99566.00
2022-12-08T07:18:24.421Z,99562.03
2022-12-08T07:20:54.018Z,99567.50
2022-12-08T07:23:26.146Z,99564.13
2022-12-08T07:25:55.670Z,99567.06
2022-12-08T07:28:25.163Z,99580.69
2022-12-08T07:30:54.836Z,99574.44
2022-12-08T07:33:24.794Z,99579.81
2022-12-08T07:35:58.202Z,99578.13
2022-12-08T07:38:31.222Z,99582.69
2022-12-08T07:41:00.878Z,99579.19
2022-12-08T07:43:30.618Z,99582.50
2022-12-08T07:46:00.181Z,99589.97
2022-12-08T07:48:30.854Z,99595.09
2022-12-08T07:51:04.146Z,99588.41
2022-12-08T07:53:36.604Z,99584.78
2022-12-08T07:56:09.207Z,99590.44
2022-12-08T07:58:38.803Z,99594.84
2022-12-08T08:01:09.139Z,99591.22
2022-12-08T08:03:39.298Z,99592.47
2022-12-08T08:06:09.322Z,99589.38
2022-12-08T08:08:41.448Z,99589.72
2022-12-08T08:11:18.992Z,99593.63
2022-12-08T08:13:50.758Z,99595.97
2022-12-08T08:16:21.990Z,99599.09
2022-12-08T08:18:52.712Z,99576.34
2022-12-08T08:24:15.788Z,99592.13
2022-12-08T08:26:45.340Z,99588.84
2022-12-08T08:29:14.915Z,99599.25
2022-12-08T08:31:44.559Z,99602.69
2022-12-08T08:34:14.162Z,99589.47
2022-12-08T08:36:43.762Z,99600.06
2022-12-08T08:39:16.067Z,99594.13
2022-12-08T08:41:45.594Z,99595.06
2022-12-08T08:44:17.100Z,99599.00
2022-12-08T08:46:46.751Z,99591.78
2022-12-08T08:49:16.347Z,99587.63
2022-12-08T08:51:46.314Z,99592.59
2022-12-08T08:54:18.477Z,99598.06
2022-12-08T08:56:48.301Z,99592.97
2022-12-08T08:59:17.925Z,99596.25
2022-12-08T09:01:47.598Z,99599.31
2022-12-08T09:04:17.252Z,99599.84
2022-12-08T09:06:48.202Z,99598.69
2022-12-08T09:09:20.529Z,99605.75
2022-12-08T09:11:50.076Z,99592.09
2022-12-08T09:14:19.601Z,99582.66
2022-12-08T09:16:49.190Z,99603.00
2022-12-08T09:19:18.889Z,99607.25
2022-12-08T09:21:48.443Z,99598.69
2022-12-08T09:24:20.652Z,99601.63
2022-12-08T09:26:50.190Z,99596.88
2022-12-08T09:29:19.986Z,99598.88
2022-12-08T09:31:49.960Z,99608.69
2022-12-08T09:34:19.647Z,99599.22
2022-12-08T09:36:49.169Z,99601.16
2022-12-08T09:39:21.298Z,99606.63
2022-12-08T09:41:53.811Z,99601.31
2022-12-08T09:44:44.243Z,99602.13
2022-12-08T09:47:20.800Z,99598.06
2022-12-08T09:49:57.585Z,99600.00
2022-12-08T09:52:30.754Z,99601.59
2022-12-08T09:55:07.483Z,99595.94
2022-12-08T09:57:37.171Z,99585.28
2022-12-08T10:00:09.343Z,99591.72
2022-12-08T10:02:38.913Z,99592.59
2022-12-08T10:05:09.770Z,99593.50
2022-12-08T10:07:45.637Z,99596.66
2022-12-08T10:10:29.018Z,99598.97
2022-12-08T10:13:07.109Z,99593.50
2022-12-08T10:15:44.428Z,99598.25
2022-12-08T10:18:18.071Z,99602.47
2022-12-08T10:20:49.612Z,99582.72
2022-12-08T10:23:27.698Z,99585.41
2022-12-08T10:26:04.620Z,99584.25
2022-12-08T10:28:41.363Z,99591.28
2022-12-08T10:31:22.747Z,99588.56
2022-12-08T10:33:58.140Z,99587.75
2022-12-08T10:36:47.499Z,99586.63
2022-12-08T10:39:37.087Z,99588.56
2022-12-08T10:42:21.937Z,99595.28
2022-12-08T10:45:00.697Z,99582.75
2022-12-08T10:47:32.420Z,99580.38
2022-12-08T10:50:22.336Z,99579.50
2022-12-08T10:52:57.990Z,99576.53
2022-12-08T10:55:27.684Z,99567.53
2022-12-08T10:57:59.845Z,99562.88
2022-12-08T11:00:31.178Z,99562.59
2022-12-08T11:03:02.625Z,99568.75
2022-12-08T11:05:36.837Z,99570.09
2022-12-08T11:08:08.063Z,99574.16
2022-12-08T11:10:45.157Z,99569.28
2022-12-08T11:13:26.204Z,99564.88
2022-12-08T11:15:57.918Z,99565.25
2022-12-08T11:18:31.278Z,99570.88
2022-12-08T11:21:03.797Z,99570.63
2022-12-08T11:23:33.654Z,99570.09
2022-12-08T11:26:09.927Z,99567.81
2022-12-08T11:28:42.725Z,99582.81
2022-12-08T11:31:25.511Z,99559.63
2022-12-08T11:33:55.872Z,99575.28
2022-12-08T11:36:29.403Z,99566.13
2022-12-08T11:39:02.916Z,99568.94
2022-12-08T11:41:37.137Z,99557.38
2022-12-08T11:44:25.225Z,99560.56
2022-12-08T11:46:59.907Z,99571.06
2022-12-08T11:49:37.349Z,99570.88
2022-12-08T11:52:14.737Z,99575.09
2022-12-08T11:54:50.765Z,99570.78
2022-12-08T11:57:20.959Z,99569.56
2022-12-08T11:59:54.821Z,99575.28
2022-12-08T12:02:27.302Z,99568.94
2022-12-08T12:05:00.943Z,99570.88
2022-12-08T12:07:43.495Z,99570.63
2022-12-08T12:10:28.335Z,99569.75
2022-12-08T12:13:11.738Z,99565.25
2022-12-08T12:16:19.419Z,99559.34
2022-12-08T12:18:53.788Z,99566.84
2022-12-08T12:21:29.460Z,99564.34
2022-12-08T12:24:03.157Z,99567.81
2022-12-08T12:26:36.403Z,99565.00
2022-12-08T12:29:09.618Z,99563.03
2022-12-08T12:31:44.668Z,99571.84
2022-12-08T12:34:19.988Z,99569.47
2022-12-08T12:36:52.708Z,99567.72
2022-12-08T12:39:25.155Z,99575.75
2022-12-08T12:41:56.888Z,99569.28
2022-12-08T12:44:50.598Z,99560.31
2022-12-08T12:47:54.272Z,99567.63
2022-12-08T12:50:46.098Z,99559.16
2022-12-08T12:53:52.079Z,99559.78
2022-12-08T12:56:53.263Z,99564.63
2022-12-08T12:59:47.852Z,99558.06
2022-12-08T13:02:23.309Z,99560.47
2022-12-08T13:05:02.221Z,99563.22
2022-12-08T13:07:35.814Z,99561.28
2022-12-08T13:10:14.263Z,99562.16
2022-12-08T13:12:44.331Z,99562.81
2022-12-08T13:15:21.600Z,99549.75
2022-12-08T13:17:52.237Z,99563.88
2022-12-08T13:20:27.768Z,99556.53
2022-12-08T13:23:21.567Z,99565.97
2022-12-08T13:26:10.852Z,99553.41
2022-12-08T13:29:15.782Z,99557.00
2022-12-08T13:31:50.918Z,99561.09
2022-12-08T13:34:25.783Z,99564.59
2022-12-08T13:37:11.073Z,99560.13
2022-12-08T13:39:47.650Z,99555.09
2022-12-08T13:42:24.995Z,99568.66
2022-12-08T13:57:02.484Z,99573.50
2022-12-08T13:59:30.729Z,99568.16
2022-12-08T14:02:04.065Z,99582.97
2022-12-08T14:04:54.337Z,99575.63
2022-12-08T14:07:24.640Z,99576.88
2022-12-08T14:09:57.059Z,99578.28
2022-12-08T14:12:28.611Z,99587.44
2022-12-08T14:15:04.186Z,99593.97
2022-12-08T14:17:35.184Z,99595.91
2022-12-08T14:20:07.317Z,99575.75
2022-12-08T14:22:38.353Z,99587.72
2022-12-08T14:25:16.670Z,99599.53
2022-12-08T14:27:46.938Z,99587.28
2022-12-08T14:30:23.874Z,99592.41
2022-12-08T14:33:01.412Z,99584.09
2022-12-08T14:35:32.718Z,99591.41
2022-12-08T14:38:04.639Z,99591.16
2022-12-08T14:40:38.701Z,99582.59
2022-12-08T14:43:17.757Z,99585.69
2022-12-08T14:45:53.621Z,99601.47
2022-12-08T14:48:29.003Z,99592.81
2022-12-08T14:51:04.550Z,99594.88
2022-12-08T14:53:41.148Z,99600.41
2022-12-08T14:56:21.651Z,99596.97
2022-12-08T14:58:53.085Z,99602.00
2022-12-08T15:01:26.404Z,99602.69
2022-12-08T15:03:56.477Z,99598.38
2022-12-08T15:06:25.983Z,99597.13
2022-12-08T15:08:58.886Z,99607.72
2022-12-08T15:11:35.099Z,99609.91
2022-12-08T15:14:04.767Z,99610.00
2022-12-08T15:16:41.417Z,99605.78
2022-12-08T15:19:28.438Z,99601.53
2022-12-08T15:22:00.039Z,99616.22
2022-12-08T15:24:32.388Z,99622.91
2022-12-08T15:27:06.705Z,99611.19
2022-12-08T15:29:36.403Z,99612.72
2022-12-08T15:32:13.470Z,99622.03
2022-12-08T15:34:42.973Z,99623.78
2022-12-08T15:37:22.674Z,99637.88
2022-12-08T15:39:52.867Z,99639.47
2022-12-08T15:42:25.079Z,99646.41
2022-12-08T15:44:54.617Z,99650.38
2022-12-08T15:47:26.618Z,99643.78
2022-12-08T15:49:56.266Z,99644.72
2022-12-08T15:52:27.631Z,99656.44
2022-12-08T15:54:57.514Z,99653.38
2022-12-08T15:58:17.478Z,99656.00
2022-12-08T16:09:18.333Z,99637.38
2022-12-08T16:12:09.872Z,99640.69
2022-12-08T16:17:36.559Z,99643.00
2022-12-08T16:20:07.424Z,99632.75
2022-12-08T16:22:59.713Z,99633.91
2022-12-08T16:25:36.383Z,99647.28
2022-12-08T16:28:52.293Z,99647.19
2022-12-08T16:31:13.387Z,99649.59
2022-12-08T16:33:44.557Z,99646.06
2022-12-08T16:36:14.158Z,99656.63
2022-12-08T16:38:43.915Z,99646.94
2022-12-08T16:41:29.614Z,99656.97
2022-12-08T16:44:03.566Z,99651.06
2022-12-08T16:46:37.122Z,99650.81
2022-12-08T16:49:10.558Z,99649.78
2022-12-08T16:51:40.259Z,99652.06
2022-12-08T16:54:09.774Z,99655.84
2022-12-08T16:56:39.542Z,99653.34
2022-12-08T16:59:09.057Z,99657.97
2022-12-08T17:01:41.364Z,99649.69
2022-12-08T17:07:01.109Z,99667.25
2022-12-08T17:09:31.234Z,99664.28
2022-12-08T17:12:03.972Z,99656.56
2022-12-08T17:14:36.182Z,99627.94
2022-12-08T17:17:08.964Z,99654.06
2022-12-08T17:19:38.599Z,99654.31
2022-12-08T17:22:08.217Z,99649.19
2022-12-08T17:24:37.825Z,99644.97
2022-12-08T17:27:07.492Z,99648.41
2022-12-08T17:29:37.849Z,99660.31
2022-12-08T17:32:10.264Z,99659.53
2022-12-08T17:34:40.138Z,99665.66
2022-12-08T17:37:09.707Z,99663.41
2022-12-08T17:39:41.127Z,99648.22
2022-12-08T17:42:11.049Z,99657.97
2022-12-08T17:44:40.819Z,99659.56
2022-12-08T17:47:13.001Z,99655.94
2022-12-08T17:49:42.612Z,99667.31
2022-12-08T17:52:13.695Z,99657.53
2022-12-08T17:54:43.382Z,99661.06
2022-12-08T17:57:12.935Z,99669.09
2022-12-08T17:59:42.518Z,99665.66
2022-12-08T18:02:15.250Z,99673.41
2022-12-08T18:04:44.814Z,99666.94
2022-12-08T18:07:14.392Z,99669.34
2022-12-08T18:09:43.985Z,99675.50
2022-12-08T18:12:13.547Z,99660.59
2022-12-08T18:14:43.256Z,99670.94
2022-12-08T18:17:15.629Z,99664.69
2022-12-08T18:19:45.229Z,99666.84
2022-12-08T18:22:16.060Z,99665.50
2022-12-08T18:24:47.718Z,99669.81
2022-12-08T18:27:17.283Z,99669.13
2022-12-08T18:29:46.826Z,99659.00
2022-12-08T18:32:22.789Z,99667.84
2022-12-08T18:34:52.768Z,99671.38
2022-12-08T18:37:22.639Z,99668.22
2022-12-08T18:39:52.375Z,99672.63
2022-12-08T18:42:28.388Z,99663.09
2022-12-08T18:45:02.926Z,99655.63
2022-12-08T18:47:36.673Z,99668.09
2022-12-08T18:50:07.813Z,99670.94
2022-12-08T18:52:37.888Z,99677.28
2022-12-08T18:55:08.640Z,99675.69
2022-12-08T18:57:40.060Z,99673.22
2022-12-08T19:00:12.915Z,99680.66
2022-12-08T19:02:45.249Z,99679.31
2022-12-08T19:05:16.644Z,99677.84
2022-12-08T19:07:46.664Z,99679.53
2022-12-08T19:10:16.428Z,99686.13
2022-12-08T19:12:46.020Z,99687.97
2022-12-08T19:15:15.594Z,99686.19
2022-12-08T19:17:47.778Z,99685.00
2022-12-08T19:20:17.462Z,99678.91
2022-12-08T19:22:47.078Z,99688.13
2022-12-08T19:25:16.652Z,99690.94
2022-12-08T19:27:46.275Z,99694.72
2022-12-08T19:30:17.134Z,99696.91
2022-12-08T19:32:49.313Z,99696.81
2022-12-08T19:35:19.350Z,99707.13
2022-12-08T19:37:48.998Z,99699.88
2022-12-08T19:40:31.278Z,99703.78
2022-12-08T19:43:13.343Z,99686.84
2022-12-08T19:45:43.081Z,99698.66
2022-12-08T19:48:15.343Z,99697.88
2022-12-08T19:50:45.032Z,99701.94
2022-12-08T19:53:17.581Z,99700.34
2022-12-08T19:55:47.433Z,99701.06
2022-12-08T19:58:16.957Z,99694.69
2022-12-08T20:00:47.372Z,99700.72
2022-12-08T20:03:21.870Z,99715.81
2022-12-08T20:05:53.098Z,99713.19
2022-12-08T20:08:22.671Z,99715.34
2022-12-08T20:10:56.071Z,99706.38
2022-12-08T20:13:40.517Z,99715.09
2022-12-08T20:16:11.494Z,99723.75
2022-12-08T20:18:44.909Z,99725.88
2022-12-08T20:21:15.493Z,99724.75
2022-12-08T20:23:45.553Z,99719.75
2022-12-08T20:26:17.997Z,99722.59
2022-12-08T20:28:47.601Z,99727.69
2022-12-08T20:31:21.965Z,99732.25
2022-12-08T20:33:54.836Z,99740.03
2022-12-08T20:36:25.560Z,99736.66
2022-12-08T20:38:56.579Z,99742.78
2022-12-08T20:41:26.369Z,99733.47
2022-12-08T20:43:56.106Z,99739.59
2022-12-08T20:46:25.748Z,99739.34
2022-12-08T20:49:01.343Z,99727.66
2022-12-08T20:51:36.729Z,99737.63
2022-12-08T20:54:17.939Z,99731.16
2022-12-08T20:56:48.756Z,99732.78
2022-12-08T20:59:20.516Z,99736.94
2022-12-08T21:01:50.262Z,99742.41
2022-12-08T21:04:23.999Z,99744.78
2022-12-08T21:06:56.050Z,99737.97
2022-12-08T21:09:31.461Z,99743.88
2022-12-08T21:12:03.141Z,99711.91
2022-12-08T21:14:33.208Z,99724.31
2022-12-08T21:17:07.751Z,99729.28
2022-12-08T21:19:41.488Z,99734.72
2022-12-08T21:22:11.399Z,99747.81
2022-12-08T21:24:41.043Z,99749.81
2022-12-08T21:27:11.061Z,99747.31
2022-12-08T21:29:40.817Z,99734.91
2022-12-08T21:32:10.835Z,99756.34
2022-12-08T21:34:44.335Z,99757.34
2022-12-08T21:37:14.252Z,99744.28
2022-12-08T21:39:43.820Z,99758.81
2022-12-08T21:42:33.866Z,99745.88
2022-12-08T21:45:04.261Z,99741.28
2022-12-08T21:47:34.182Z,99746.72
2022-12-08T21:50:07.401Z,99749.31
2022-12-08T21:52:40.130Z,99749.50
2022-12-08T21:55:11.344Z,99747.34
2022-12-08T21:57:42.083Z,99731.06
2022-12-08T22:00:16.640Z,99742.09
2022-12-08T22:02:47.088Z,99750.09
2022-12-08T22:05:19.924Z,99760.53
2022-12-08T22:07:49.597Z,99748.06
2022-12-08T22:10:21.145Z,99752.25
2022-12-08T22:12:50.751Z,99755.28
2022-12-08T22:15:20.505Z,99754.00
2022-12-08T22:17:50.367Z,99753.22
2022-12-08T22:20:22.765Z,99751.63
2022-12-08T22:22:52.449Z,99752.28
2022-12-08T22:25:22.266Z,99751.81
2022-12-08T22:27:52.025Z,99752.94
2022-12-08T22:30:21.781Z,99748.19
2022-12-08T22:32:51.630Z,99753.84
2022-12-08T22:35:24.065Z,99754.19
2022-12-08T22:37:53.786Z,99750.97
2022-12-08T22:40:23.519Z,99737.25
2022-12-08T22:42:53.276Z,99734.84
2022-12-08T22:45:22.963Z,99740.91
2022-12-08T22:47:52.841Z,99741.91
2022-12-08T22:50:25.163Z,99744.44
2022-12-08T22:52:54.805Z,99750.53
2022-12-08T22:55:24.641Z,99747.19
2022-12-08T22:57:54.264Z,99752.81
2022-12-08T23:00:24.549Z,99746.78
2022-12-08T23:02:54.291Z,99751.22
2022-12-08T23:05:26.801Z,99751.53
2022-12-08T23:07:56.639Z,99750.41
2022-12-08T23:10:26.216Z,99747.09
2022-12-08T23:12:59.248Z,99751.72
2022-12-08T23:15:31.868Z,99743.28
2022-12-08T23:18:01.531Z,99756.19
2022-12-08T23:20:33.946Z,99757.31
2022-12-08T23:23:03.690Z,99753.47
2022-12-08T23:25:33.275Z,99754.91
2022-12-08T23:28:02.940Z,99751.72
2022-12-08T23:30:32.559Z,99746.78
2022-12-08T23:33:02.181Z,99731.50
2022-12-08T23:35:34.335Z,99741.19
2022-12-08T23:38:04.232Z,99738.00
2022-12-08T23:40:34.237Z,99744.84
2022-12-08T23:43:03.948Z,99742.44
2022-12-08T23:45:33.622Z,99728.94
2022-12-08T23:48:03.203Z,99745.06
2022-12-08T23:50:35.552Z,99742.81
2022-12-08T23:53:05.380Z,99742.06
2022-12-08T23:55:34.978Z,99744.59
2022-12-08T23:58:04.695Z,99742.53
